Lake Butler, Florida
Current Conditions -  °F | °C
As of 4:55 AM on Sunday 21 Dec 2014 (Local Time) from KLCQ Reporting Station
Haze Haze  
Wind Chill: 54°   Ceiling: 400
Heat Index: 54°   Visibility: 5mi
Dew Point: 54°   Wind: 5mph
Humidity: 100%   Direction: 80°E
Pressure: 30.07"   Gusts: NA
Location:  30.02°N, 82.34°W
Report Text: KLCQ 210955Z AUTO 08004KT 5SM BR OVC004 12/12 A3007 RMK AO2
Loading
Personal Weather Stations






























Interactive Weather Map New forecast layout! Learn more

10-Day Weather Forecast

Advertisements
Track Severe Weather on mobile